sensor_id;sensor_type;location;lat;lon;timestamp;pressure;altitude;pressure_sealevel;temperature;humidity
22257;BME280;11297;42.686;23.374;2023-02-03T00:02:10;95206.72;;;5.79;57.98
22257;BME280;11297;42.686;23.374;2023-02-03T00:04:36;95202.31;;;5.79;57.94
22257;BME280;11297;42.686;23.374;2023-02-03T00:07:01;95207.72;;;5.78;58.32
22257;BME280;11297;42.686;23.374;2023-02-03T00:09:27;95186.97;;;5.45;59.16
22257;BME280;11297;42.686;23.374;2023-02-03T00:11:52;95217.59;;;5.56;59.61
22257;BME280;11297;42.686;23.374;2023-02-03T00:14:18;95223.00;;;5.50;60.18
22257;BME280;11297;42.686;23.374;2023-02-03T00:16:43;95220.16;;;5.51;60.53
22257;BME280;11297;42.686;23.374;2023-02-03T00:19:09;95227.91;;;5.56;60.66
22257;BME280;11297;42.686;23.374;2023-02-03T00:21:34;95210.94;;;5.40;61.33
22257;BME280;11297;42.686;23.374;2023-02-03T00:23:59;95195.00;;;5.28;61.43
22257;BME280;11297;42.686;23.374;2023-02-03T00:26:25;95225.63;;;5.40;62.16
22257;BME280;11297;42.686;23.374;2023-02-03T00:28:52;95228.19;;;5.35;62.46
22257;BME280;11297;42.686;23.374;2023-02-03T00:31:20;95235.16;;;5.44;62.65
22257;BME280;11297;42.686;23.374;2023-02-03T00:33:46;95227.41;;;5.49;62.43
22257;BME280;11297;42.686;23.374;2023-02-03T00:36:12;95227.09;;;5.56;62.52
22257;BME280;11297;42.686;23.374;2023-02-03T00:38:37;95230.28;;;5.28;62.93
22257;BME280;11297;42.686;23.374;2023-02-03T00:41:03;95239.78;;;5.37;63.37
22257;BME280;11297;42.686;23.374;2023-02-03T00:43:28;95238.00;;;5.33;63.62
22257;BME280;11297;42.686;23.374;2023-02-03T00:45:54;95243.66;;;5.40;63.54
22257;BME280;11297;42.686;23.374;2023-02-03T00:48:19;95239.03;;;5.17;63.94
22257;BME280;11297;42.686;23.374;2023-02-03T00:50:46;95253.72;;;5.26;64.70
22257;BME280;11297;42.686;23.374;2023-02-03T00:53:12;95256.03;;;5.23;65.40
22257;BME280;11297;42.686;23.374;2023-02-03T00:55:38;95248.84;;;5.15;65.99
22257;BME280;11297;42.686;23.374;2023-02-03T00:58:04;95254.75;;;5.21;65.73
22257;BME280;11297;42.686;23.374;2023-02-03T01:00:29;95261.72;;;5.15;66.00
22257;BME280;11297;42.686;23.374;2023-02-03T01:02:54;95268.41;;;5.06;66.55
22257;BME280;11297;42.686;23.374;2023-02-03T01:05:20;95266.63;;;5.07;66.70
22257;BME280;11297;42.686;23.374;2023-02-03T01:07:45;95268.94;;;4.98;67.33
22257;BME280;11297;42.686;23.374;2023-02-03T01:10:11;95247.31;;;4.70;67.89
22257;BME280;11297;42.686;23.374;2023-02-03T01:12:36;95276.41;;;4.80;68.18
22257;BME280;11297;42.686;23.374;2023-02-03T01:15:02;95253.25;;;4.65;68.71
22257;BME280;11297;42.686;23.374;2023-02-03T01:17:27;95271.50;;;4.78;68.87
22257;BME280;11297;42.686;23.374;2023-02-03T01:19:53;95259.94;;;4.86;68.92
22257;BME280;11297;42.686;23.374;2023-02-03T01:22:18;95260.94;;;4.90;68.93
22257;BME280;11297;42.686;23.374;2023-02-03T01:24:43;95258.13;;;4.96;68.70
22257;BME280;11297;42.686;23.374;2023-02-03T01:27:09;95246.78;;;4.97;68.64
22257;BME280;11297;42.686;23.374;2023-02-03T01:29:35;95243.22;;;4.83;68.56
22257;BME280;11297;42.686;23.374;2023-02-03T01:32:00;95246.81;;;4.77;67.53
22257;BME280;11297;42.686;23.374;2023-02-03T01:34:26;95245.53;;;4.80;67.87
22257;BME280;11297;42.686;23.374;2023-02-03T01:36:51;95257.34;;;4.81;68.03
22257;BME280;11297;42.686;23.374;2023-02-03T01:39:17;95272.53;;;4.82;67.49
22257;BME280;11297;42.686;23.374;2023-02-03T01:41:42;95268.69;;;4.85;67.20
22257;BME280;11297;42.686;23.374;2023-02-03T01:44:33;95275.38;;;4.76;66.93
22257;BME280;11297;42.686;23.374;2023-02-03T01:46:59;95272.78;;;4.71;66.79
22257;BME280;11297;42.686;23.374;2023-02-03T01:49:28;95264.03;;;4.72;66.69
22257;BME280;11297;42.686;23.374;2023-02-03T01:51:55;95264.53;;;4.69;66.65
22257;BME280;11297;42.686;23.374;2023-02-03T01:54:25;95266.34;;;4.64;66.67
22257;BME280;11297;42.686;23.374;2023-02-03T01:57:00;95269.69;;;4.59;67.17
22257;BME280;11297;42.686;23.374;2023-02-03T01:59:28;95269.66;;;4.49;66.83
22257;BME280;11297;42.686;23.374;2023-02-03T02:01:54;95284.59;;;4.67;66.50
22257;BME280;11297;42.686;23.374;2023-02-03T02:04:21;95259.41;;;4.64;66.46
22257;BME280;11297;42.686;23.374;2023-02-03T02:06:49;95269.94;;;4.63;66.33
22257;BME280;11297;42.686;23.374;2023-02-03T02:09:15;95254.25;;;4.59;66.00
22257;BME280;11297;42.686;23.374;2023-02-03T02:11:41;95270.44;;;4.65;66.26
22257;BME280;11297;42.686;23.374;2023-02-03T02:14:07;95257.34;;;4.61;65.55
22257;BME280;11297;42.686;23.374;2023-02-03T02:17:22;95272.25;;;4.64;65.65
22257;BME280;11297;42.686;23.374;2023-02-03T02:22:21;95272.25;;;4.49;66.02
22257;BME280;11297;42.686;23.374;2023-02-03T02:30:42;95300.78;;;4.48;66.23
22257;BME280;11297;42.686;23.374;2023-02-03T02:38:40;95303.59;;;4.41;65.97
22257;BME280;11297;42.686;23.374;2023-02-03T02:41:17;95300.53;;;4.44;65.76
22257;BME280;11297;42.686;23.374;2023-02-03T02:44:21;95287.91;;;4.38;66.18
22257;BME280;11297;42.686;23.374;2023-02-03T02:46:50;95287.66;;;4.44;66.22
22257;BME280;11297;42.686;23.374;2023-02-03T02:51:59;95288.69;;;4.43;66.22
22257;BME280;11297;42.686;23.374;2023-02-03T02:54:26;95285.09;;;4.44;65.89
22257;BME280;11297;42.686;23.374;2023-02-03T02:56:55;95288.66;;;4.28;66.02
22257;BME280;11297;42.686;23.374;2023-02-03T02:59:22;95281.44;;;4.26;66.49
22257;BME280;11297;42.686;23.374;2023-02-03T03:01:48;95289.91;;;4.21;66.18
22257;BME280;11297;42.686;23.374;2023-02-03T03:04:16;95288.06;;;4.07;66.66
22257;BME280;11297;42.686;23.374;2023-02-03T03:06:46;95290.38;;;4.03;66.68
22257;BME280;11297;42.686;23.374;2023-02-03T03:09:18;95299.13;;;4.07;66.73
22257;BME280;11297;42.686;23.374;2023-02-03T03:11:53;95301.44;;;4.09;66.85
22257;BME280;11297;42.686;23.374;2023-02-03T03:14:21;95301.91;;;3.96;66.25
22257;BME280;11297;42.686;23.374;2023-02-03T03:16:58;95309.38;;;4.02;65.89
22257;BME280;11297;42.686;23.374;2023-02-03T03:19:27;95307.59;;;4.08;65.71
22257;BME280;11297;42.686;23.374;2023-02-03T03:22:01;95315.31;;;4.13;65.19
22257;BME280;11297;42.686;23.374;2023-02-03T03:24:30;95306.84;;;4.12;65.43
22257;BME280;11297;42.686;23.374;2023-02-03T03:29:36;95321.50;;;4.12;64.33
22257;BME280;11297;42.686;23.374;2023-02-03T03:32:03;95323.00;;;4.08;64.11
22257;BME280;11297;42.686;23.374;2023-02-03T03:34:30;95322.47;;;4.01;64.46
22257;BME280;11297;42.686;23.374;2023-02-03T03:39:42;95329.97;;;4.17;63.12
22257;BME280;11297;42.686;23.374;2023-02-03T03:44:43;95337.69;;;4.17;62.73
22257;BME280;11297;42.686;23.374;2023-02-03T03:47:20;95328.16;;;4.13;62.75
22257;BME280;11297;42.686;23.374;2023-02-03T03:49:48;95331.78;;;4.17;62.71
22257;BME280;11297;42.686;23.374;2023-02-03T03:52:20;95333.59;;;4.16;62.46
22257;BME280;11297;42.686;23.374;2023-02-03T03:54:48;95331.53;;;4.23;62.79
22257;BME280;11297;42.686;23.374;2023-02-03T03:57:20;95328.22;;;4.27;62.49
22257;BME280;11297;42.686;23.374;2023-02-03T03:59:48;95344.44;;;4.38;62.27
22257;BME280;11297;42.686;23.374;2023-02-03T04:02:16;95350.41;;;4.48;61.79
22257;BME280;11297;42.686;23.374;2023-02-03T04:04:44;95353.56;;;4.65;61.33
22257;BME280;11297;42.686;23.374;2023-02-03T04:07:12;95348.13;;;4.52;61.45
22257;BME280;11297;42.686;23.374;2023-02-03T04:09:37;95357.38;;;4.58;61.30
22257;BME280;11297;42.686;23.374;2023-02-03T04:12:04;95356.56;;;4.42;61.64
22257;BME280;11297;42.686;23.374;2023-02-03T04:14:33;95354.53;;;4.44;62.04
22257;BME280;11297;42.686;23.374;2023-02-03T04:16:59;95367.88;;;4.46;61.97
22257;BME280;11297;42.686;23.374;2023-02-03T04:19:25;95371.97;;;4.42;61.94
22257;BME280;11297;42.686;23.374;2023-02-03T04:21:50;95385.88;;;4.46;62.26
22257;BME280;11297;42.686;23.374;2023-02-03T04:24:16;95384.81;;;4.37;62.60
22257;BME280;11297;42.686;23.374;2023-02-03T04:26:41;95393.88;;;4.50;62.52
22257;BME280;11297;42.686;23.374;2023-02-03T04:29:07;95396.44;;;4.45;62.43
22257;BME280;11297;42.686;23.374;2023-02-03T04:31:32;95398.50;;;4.43;62.58
22257;BME280;11297;42.686;23.374;2023-02-03T04:33:58;95399.53;;;4.52;62.53
22257;BME280;11297;42.686;23.374;2023-02-03T04:36:23;95401.13;;;4.63;62.18
22257;BME280;11297;42.686;23.374;2023-02-03T04:38:49;95397.25;;;4.55;61.98
22257;BME280;11297;42.686;23.374;2023-02-03T04:41:15;95392.53;;;4.37;62.47
22257;BME280;11297;42.686;23.374;2023-02-03T04:43:40;95411.84;;;4.40;62.61
22257;BME280;11297;42.686;23.374;2023-02-03T04:46:06;95417.75;;;4.35;62.92
22257;BME280;11297;42.686;23.374;2023-02-03T04:48:31;95421.06;;;4.31;63.11
22257;BME280;11297;42.686;23.374;2023-02-03T04:51:01;95417.19;;;4.28;63.01
22257;BME280;11297;42.686;23.374;2023-02-03T04:53:27;95417.19;;;4.33;63.19
22257;BME280;11297;42.686;23.374;2023-02-03T04:55:52;95414.59;;;4.28;63.08
22257;BME280;11297;42.686;23.374;2023-02-03T04:58:18;95421.56;;;4.28;62.98
22257;BME280;11297;42.686;23.374;2023-02-03T05:00:43;95412.81;;;4.29;63.16
22257;BME280;11297;42.686;23.374;2023-02-03T05:03:08;95424.81;;;4.14;63.36
22257;BME280;11297;42.686;23.374;2023-02-03T05:05:34;95425.03;;;4.07;63.66
22257;BME280;11297;42.686;23.374;2023-02-03T05:07:59;95431.88;;;3.92;64.35
22257;BME280;11297;42.686;23.374;2023-02-03T05:10:25;95434.50;;;4.02;64.44
22257;BME280;11297;42.686;23.374;2023-02-03T05:12:50;95433.28;;;4.09;64.35
22257;BME280;11297;42.686;23.374;2023-02-03T05:15:15;95437.66;;;4.14;64.02
22257;BME280;11297;42.686;23.374;2023-02-03T05:17:41;95445.19;;;4.25;63.58
22257;BME280;11297;42.686;23.374;2023-02-03T05:20:07;95441.13;;;4.34;63.16
22257;BME280;11297;42.686;23.374;2023-02-03T05:22:32;95447.03;;;4.39;62.81
22257;BME280;11297;42.686;23.374;2023-02-03T05:25:00;95434.94;;;4.35;62.60
22257;BME280;11297;42.686;23.374;2023-02-03T05:27:25;95452.41;;;4.33;62.71
22257;BME280;11297;42.686;23.374;2023-02-03T05:29:50;95455.75;;;4.33;62.37
22257;BME280;11297;42.686;23.374;2023-02-03T05:32:16;95452.41;;;4.33;62.88
22257;BME280;11297;42.686;23.374;2023-02-03T05:34:41;95446.72;;;4.26;62.68
22257;BME280;11297;42.686;23.374;2023-02-03T05:37:07;95451.13;;;4.30;62.72
22257;BME280;11297;42.686;23.374;2023-02-03T05:39:32;95444.38;;;4.20;62.70
22257;BME280;11297;42.686;23.374;2023-02-03T05:41:57;95443.38;;;4.26;62.84
22257;BME280;11297;42.686;23.374;2023-02-03T05:44:25;95443.31;;;4.16;63.19
22257;BME280;11297;42.686;23.374;2023-02-03T05:46:53;95452.16;;;3.88;63.74
22257;BME280;11297;42.686;23.374;2023-02-03T05:49:19;95454.75;;;3.93;63.86
22257;BME280;11297;42.686;23.374;2023-02-03T05:51:45;95460.44;;;4.00;64.24
22257;BME280;11297;42.686;23.374;2023-02-03T05:54:11;95435.97;;;3.88;63.87
22257;BME280;11297;42.686;23.374;2023-02-03T05:56:37;95464.34;;;4.03;63.91
22257;BME280;11297;42.686;23.374;2023-02-03T05:59:03;95463.38;;;4.14;63.58
22257;BME280;11297;42.686;23.374;2023-02-03T06:01:30;95459.28;;;4.18;63.52
22257;BME280;11297;42.686;23.374;2023-02-03T06:03:55;95468.75;;;4.12;62.96
22257;BME280;11297;42.686;23.374;2023-02-03T06:06:21;95469.09;;;4.26;63.24
22257;BME280;11297;42.686;23.374;2023-02-03T06:08:46;95461.59;;;4.19;62.99
22257;BME280;11297;42.686;23.374;2023-02-03T06:11:12;95476.72;;;4.11;63.02
22257;BME280;11297;42.686;23.374;2023-02-03T06:13:38;95458.47;;;4.12;62.80
22257;BME280;11297;42.686;23.374;2023-02-03T06:16:03;95467.50;;;4.15;62.87
22257;BME280;11297;42.686;23.374;2023-02-03T06:18:29;95469.59;;;4.23;63.02
22257;BME280;11297;42.686;23.374;2023-02-03T06:20:54;95469.59;;;4.27;62.75
22257;BME280;11297;42.686;23.374;2023-02-03T06:23:20;95486.81;;;4.22;62.78
22257;BME280;11297;42.686;23.374;2023-02-03T06:25:49;95478.13;;;4.33;62.27
22257;BME280;11297;42.686;23.374;2023-02-03T06:28:15;95484.75;;;4.65;61.31
22257;BME280;11297;42.686;23.374;2023-02-03T06:30:41;95480.53;;;5.10;60.79
22257;BME280;11297;42.686;23.374;2023-02-03T06:33:07;95486.00;;;5.53;58.79
22257;BME280;11297;42.686;23.374;2023-02-03T06:35:32;95486.31;;;5.96;57.44
22257;BME280;11297;42.686;23.374;2023-02-03T06:37:58;95496.59;;;6.41;55.64
22257;BME280;11297;42.686;23.374;2023-02-03T06:40:23;95488.13;;;6.98;54.85
22257;BME280;11297;42.686;23.374;2023-02-03T06:42:49;95493.16;;;7.33;52.37
22257;BME280;11297;42.686;23.374;2023-02-03T06:45:15;95502.50;;;7.67;51.38
22257;BME280;11297;42.686;23.374;2023-02-03T06:47:42;95508.03;;;7.89;49.89
22257;BME280;11297;42.686;23.374;2023-02-03T06:50:10;95512.78;;;8.43;50.29
22257;BME280;11297;42.686;23.374;2023-02-03T06:52:36;95514.63;;;8.43;48.30
22257;BME280;11297;42.686;23.374;2023-02-03T06:55:02;95496.16;;;8.49;48.09
22257;BME280;11297;42.686;23.374;2023-02-03T06:57:28;95491.31;;;8.66;47.92
22257;BME280;11297;42.686;23.374;2023-02-03T06:59:54;95501.28;;;9.79;69.39
22257;BME280;11297;42.686;23.374;2023-02-03T07:02:19;95500.31;;;9.56;46.70
22257;BME280;11297;42.686;23.374;2023-02-03T07:04:44;95502.56;;;9.45;45.69
22257;BME280;11297;42.686;23.374;2023-02-03T07:07:11;95481.13;;;9.57;46.03
22257;BME280;11297;42.686;23.374;2023-02-03T07:09:37;95490.53;;;9.12;45.59
22257;BME280;11297;42.686;23.374;2023-02-03T07:12:03;95489.56;;;9.08;45.62
22257;BME280;11297;42.686;23.374;2023-02-03T07:14:29;95490.44;;;8.99;45.36
22257;BME280;11297;42.686;23.374;2023-02-03T07:16:55;95495.41;;;9.18;45.18
22257;BME280;11297;42.686;23.374;2023-02-03T07:19:21;95477.41;;;9.45;45.34
22257;BME280;11297;42.686;23.374;2023-02-03T07:21:46;95486.44;;;9.48;45.20
22257;BME280;11297;42.686;23.374;2023-02-03T07:24:11;95484.47;;;9.21;44.81
22257;BME280;11297;42.686;23.374;2023-02-03T07:26:37;95484.19;;;9.23;45.24
22257;BME280;11297;42.686;23.374;2023-02-03T07:29:03;95487.13;;;9.71;63.78
22257;BME280;11297;42.686;23.374;2023-02-03T07:31:29;95480.50;;;11.27;71.91
22257;BME280;11297;42.686;23.374;2023-02-03T07:33:55;95497.69;;;12.72;71.58
22257;BME280;11297;42.686;23.374;2023-02-03T07:36:20;95496.84;;;11.41;52.53
22257;BME280;11297;42.686;23.374;2023-02-03T07:38:46;95498.69;;;11.27;55.02
22257;BME280;11297;42.686;23.374;2023-02-03T07:41:11;95498.63;;;12.24;52.83
22257;BME280;11297;42.686;23.374;2023-02-03T07:43:37;95501.03;;;12.73;54.76
22257;BME280;11297;42.686;23.374;2023-02-03T07:46:02;95509.31;;;12.96;51.37
22257;BME280;11297;42.686;23.374;2023-02-03T07:48:28;95501.50;;;12.75;55.68
22257;BME280;11297;42.686;23.374;2023-02-03T07:50:53;95500.28;;;12.72;46.84
22257;BME280;11297;42.686;23.374;2023-02-03T07:53:19;95508.91;;;12.81;49.64
22257;BME280;11297;42.686;23.374;2023-02-03T07:55:44;95502.50;;;12.57;43.25
22257;BME280;11297;42.686;23.374;2023-02-03T07:58:09;95491.16;;;12.53;38.84
22257;BME280;11297;42.686;23.374;2023-02-03T08:00:35;95489.94;;;12.07;38.71
22257;BME280;11297;42.686;23.374;2023-02-03T08:03:00;95503.28;;;11.57;38.99
22257;BME280;11297;42.686;23.374;2023-02-03T08:05:26;95506.38;;;10.65;40.72
22257;BME280;11297;42.686;23.374;2023-02-03T08:07:51;95498.88;;;10.19;41.44
22257;BME280;11297;42.686;23.374;2023-02-03T08:10:17;95501.50;;;10.32;41.16
22257;BME280;11297;42.686;23.374;2023-02-03T08:12:42;95513.56;;;10.10;41.48
22257;BME280;11297;42.686;23.374;2023-02-03T08:15:09;95515.53;;;9.81;42.27
22257;BME280;11297;42.686;23.374;2023-02-03T08:17:35;95515.13;;;9.56;42.92
22257;BME280;11297;42.686;23.374;2023-02-03T08:20:04;95528.56;;;9.58;43.76
22257;BME280;11297;42.686;23.374;2023-02-03T08:22:30;95495.28;;;9.65;42.95
22257;BME280;11297;42.686;23.374;2023-02-03T08:24:55;95520.16;;;9.48;43.37
22257;BME280;11297;42.686;23.374;2023-02-03T08:27:21;95496.31;;;9.46;43.71
22257;BME280;11297;42.686;23.374;2023-02-03T08:29:47;95530.78;;;9.04;43.16
22257;BME280;11297;42.686;23.374;2023-02-03T08:32:15;95520.34;;;9.33;43.80
22257;BME280;11297;42.686;23.374;2023-02-03T08:34:41;95532.06;;;9.49;42.97
22257;BME280;11297;42.686;23.374;2023-02-03T08:37:07;95526.97;;;9.62;42.13
22257;BME280;11297;42.686;23.374;2023-02-03T08:39:33;95543.56;;;10.16;41.28
22257;BME280;11297;42.686;23.374;2023-02-03T08:41:59;95527.00;;;10.30;40.03
22257;BME280;11297;42.686;23.374;2023-02-03T08:44:25;95532.75;;;10.72;39.91
22257;BME280;11297;42.686;23.374;2023-02-03T08:46:51;95539.28;;;10.70;39.46
22257;BME280;11297;42.686;23.374;2023-02-03T08:49:18;95524.94;;;10.59;40.24
22257;BME280;11297;42.686;23.374;2023-02-03T08:51:45;95553.84;;;10.39;40.32
22257;BME280;11297;42.686;23.374;2023-02-03T08:54:10;95539.47;;;10.60;40.77
22257;BME280;11297;42.686;23.374;2023-02-03T08:56:36;95532.59;;;10.96;38.45
22257;BME280;11297;42.686;23.374;2023-02-03T08:59:01;95567.56;;;10.58;38.36
22257;BME280;11297;42.686;23.374;2023-02-03T09:01:27;95545.50;;;10.42;39.06
22257;BME280;11297;42.686;23.374;2023-02-03T09:03:55;95561.97;;;10.51;38.89
22257;BME280;11297;42.686;23.374;2023-02-03T09:06:20;95553.25;;;10.74;38.92
22257;BME280;11297;42.686;23.374;2023-02-03T09:08:46;95565.47;;;10.42;39.77
22257;BME280;11297;42.686;23.374;2023-02-03T09:11:18;95548.41;;;9.86;40.37
22257;BME280;11297;42.686;23.374;2023-02-03T09:13:43;95548.16;;;9.69;40.96
22257;BME280;11297;42.686;23.374;2023-02-03T09:16:15;95559.16;;;9.79;42.20
22257;BME280;11297;42.686;23.374;2023-02-03T09:18:42;95555.50;;;10.17;41.87
22257;BME280;11297;42.686;23.374;2023-02-03T09:21:09;95529.94;;;10.55;41.40
22257;BME280;11297;42.686;23.374;2023-02-03T09:23:39;95532.97;;;11.02;41.19
22257;BME280;11297;42.686;23.374;2023-02-03T09:26:06;95539.72;;;10.90;39.62
22257;BME280;11297;42.686;23.374;2023-02-03T09:28:32;95544.59;;;10.33;40.47
22257;BME280;11297;42.686;23.374;2023-02-03T09:31:03;95551.09;;;9.81;41.24
22257;BME280;11297;42.686;23.374;2023-02-03T09:33:29;95557.22;;;9.48;43.62
22257;BME280;11297;42.686;23.374;2023-02-03T09:35:55;95550.22;;;9.49;43.92
22257;BME280;11297;42.686;23.374;2023-02-03T09:38:25;95536.66;;;11.15;58.66
22257;BME280;11297;42.686;23.374;2023-02-03T09:40:56;95547.06;;;12.47;56.67
22257;BME280;11297;42.686;23.374;2023-02-03T09:46:05;95537.06;;;12.19;38.21
22257;BME280;11297;42.686;23.374;2023-02-03T09:48:36;95539.44;;;11.18;40.08
22257;BME280;11297;42.686;23.374;2023-02-03T09:51:03;95537.81;;;10.50;41.38
22257;BME280;11297;42.686;23.374;2023-02-03T09:53:34;95540.53;;;10.27;43.49
22257;BME280;11297;42.686;23.374;2023-02-03T09:56:01;95536.63;;;9.93;41.81
22257;BME280;11297;42.686;23.374;2023-02-03T09:58:32;95546.81;;;9.90;42.40
22257;BME280;11297;42.686;23.374;2023-02-03T10:00:59;95538.38;;;9.61;41.99
22257;BME280;11297;42.686;23.374;2023-02-03T10:03:45;95551.84;;;9.63;41.65
22257;BME280;11297;42.686;23.374;2023-02-03T10:06:35;95537.59;;;9.79;42.45
22257;BME280;11297;42.686;23.374;2023-02-03T10:20:04;95513.84;;;10.40;39.92
22257;BME280;11297;42.686;23.374;2023-02-03T10:22:43;95465.94;;;10.01;38.63
22257;BME280;11297;42.686;23.374;2023-02-03T10:27:37;95524.22;;;10.08;40.14
22257;BME280;11297;42.686;23.374;2023-02-03T10:30:16;95524.94;;;9.59;42.38
22257;BME280;11297;42.686;23.374;2023-02-03T10:32:43;95529.78;;;9.24;42.67
22257;BME280;11297;42.686;23.374;2023-02-03T10:35:12;95515.66;;;8.93;42.74
22257;BME280;11297;42.686;23.374;2023-02-03T10:37:43;95518.50;;;8.92;43.65
22257;BME280;11297;42.686;23.374;2023-02-03T10:40:13;95502.28;;;9.04;40.87
22257;BME280;11297;42.686;23.374;2023-02-03T10:42:41;95507.34;;;9.14;41.81
22257;BME280;11297;42.686;23.374;2023-02-03T10:45:27;95487.84;;;9.40;45.12
22257;BME280;11297;42.686;23.374;2023-02-03T10:47:54;95493.66;;;9.32;49.21
22257;BME280;11297;42.686;23.374;2023-02-03T10:50:22;95510.53;;;9.30;39.99
22257;BME280;11297;42.686;23.374;2023-02-03T10:52:48;95506.72;;;9.22;41.46
22257;BME280;11297;42.686;23.374;2023-02-03T10:57:45;95502.34;;;8.53;39.76
22257;BME280;11297;42.686;23.374;2023-02-03T11:02:43;95514.53;;;7.86;41.26
22257;BME280;11297;42.686;23.374;2023-02-03T11:05:18;95506.84;;;7.76;40.35
22257;BME280;11297;42.686;23.374;2023-02-03T11:07:45;95508.22;;;7.59;40.67
22257;BME280;11297;42.686;23.374;2023-02-03T11:24:05;95498.25;;;6.85;42.04
22257;BME280;11297;42.686;23.374;2023-02-03T11:29:15;95499.28;;;6.89;42.34
22257;BME280;11297;42.686;23.374;2023-02-03T11:31:46;95487.41;;;6.88;40.98
22257;BME280;11297;42.686;23.374;2023-02-03T11:34:20;95480.94;;;6.90;40.39
22257;BME280;11297;42.686;23.374;2023-02-03T11:36:48;95493.88;;;7.43;40.08
22257;BME280;11297;42.686;23.374;2023-02-03T11:39:25;95478.00;;;7.55;40.21
22257;BME280;11297;42.686;23.374;2023-02-03T11:41:50;95485.66;;;7.74;40.48
22257;BME280;11297;42.686;23.374;2023-02-03T11:44:17;95479.56;;;7.56;41.42
22257;BME280;11297;42.686;23.374;2023-02-03T11:46:46;95479.78;;;7.59;41.76
22257;BME280;11297;42.686;23.374;2023-02-03T11:51:47;95472.03;;;7.16;42.51
22257;BME280;11297;42.686;23.374;2023-02-03T12:06:10;95470.78;;;7.13;39.59
22257;BME280;11297;42.686;23.374;2023-02-03T12:14:01;95468.69;;;7.15;37.97
22257;BME280;11297;42.686;23.374;2023-02-03T12:19:52;95448.34;;;7.52;38.87
22257;BME280;11297;42.686;23.374;2023-02-03T12:22:40;95451.94;;;7.51;38.41
22257;BME280;11297;42.686;23.374;2023-02-03T12:25:38;95454.25;;;7.53;36.57
22257;BME280;11297;42.686;23.374;2023-02-03T12:31:01;95452.16;;;7.55;37.08
22257;BME280;11297;42.686;23.374;2023-02-03T12:33:37;95466.69;;;7.51;37.36
22257;BME280;11297;42.686;23.374;2023-02-03T12:36:27;95471.59;;;7.52;37.62
22257;BME280;11297;42.686;23.374;2023-02-03T12:41:59;95466.16;;;7.06;36.06
22257;BME280;11297;42.686;23.374;2023-02-03T12:44:34;95464.66;;;6.95;37.30
22257;BME280;11297;42.686;23.374;2023-02-03T12:49:45;95446.16;;;6.73;38.12
22257;BME280;11297;42.686;23.374;2023-02-03T12:52:35;95443.84;;;6.76;39.05
22257;BME280;11297;42.686;23.374;2023-02-03T12:55:27;95451.56;;;6.81;38.96
22257;BME280;11297;42.686;23.374;2023-02-03T12:58:08;95454.63;;;6.83;38.62
22257;BME280;11297;42.686;23.374;2023-02-03T13:00:45;95433.97;;;6.88;38.55
22257;BME280;11297;42.686;23.374;2023-02-03T13:14:54;95449.63;;;6.39;42.19
22257;BME280;11297;42.686;23.374;2023-02-03T13:17:28;95446.00;;;6.45;42.12
22257;BME280;11297;42.686;23.374;2023-02-03T13:20:01;95451.47;;;6.33;41.49
22257;BME280;11297;42.686;23.374;2023-02-03T13:22:26;95457.88;;;6.36;41.75
22257;BME280;11297;42.686;23.374;2023-02-03T13:25:53;95432.91;;;6.26;42.47
22257;BME280;11297;42.686;23.374;2023-02-03T13:42:26;95440.59;;;6.41;42.11
22257;BME280;11297;42.686;23.374;2023-02-03T13:47:59;95441.09;;;6.43;41.93
22257;BME280;11297;42.686;23.374;2023-02-03T13:50:29;95437.50;;;6.44;42.08
22257;BME280;11297;42.686;23.374;2023-02-03T13:57:51;95451.97;;;6.35;42.76
22257;BME280;11297;42.686;23.374;2023-02-03T14:03:16;95435.97;;;6.28;43.98
22257;BME280;11297;42.686;23.374;2023-02-03T14:05:46;95439.09;;;6.25;44.21
22257;BME280;11297;42.686;23.374;2023-02-03T14:19:04;95438.81;;;6.37;45.19
22257;BME280;11297;42.686;23.374;2023-02-03T14:21:52;95438.03;;;6.36;45.19
22257;BME280;11297;42.686;23.374;2023-02-03T14:24:18;95433.91;;;6.35;44.66
22257;BME280;11297;42.686;23.374;2023-02-03T14:26:50;95421.50;;;6.42;44.99
22257;BME280;11297;42.686;23.374;2023-02-03T14:29:28;95423.59;;;6.35;45.02
22257;BME280;11297;42.686;23.374;2023-02-03T14:32:09;95429.56;;;6.26;44.93
22257;BME280;11297;42.686;23.374;2023-02-03T14:34:36;95425.69;;;6.14;45.25
22257;BME280;11297;42.686;23.374;2023-02-03T14:40:02;95425.72;;;6.04;45.66
22257;BME280;11297;42.686;23.374;2023-02-03T14:50:22;95427.00;;;6.11;44.64
22257;BME280;11297;42.686;23.374;2023-02-03T14:53:13;95394.25;;;6.02;45.04
22257;BME280;11297;42.686;23.374;2023-02-03T14:58:53;95422.59;;;6.21;43.96
22257;BME280;11297;42.686;23.374;2023-02-03T15:06:42;95404.28;;;6.18;43.52
22257;BME280;11297;42.686;23.374;2023-02-03T15:09:31;95399.91;;;6.14;43.87
22257;BME280;11297;42.686;23.374;2023-02-03T15:11:59;95395.28;;;6.16;43.62
22257;BME280;11297;42.686;23.374;2023-02-03T15:14:26;95387.00;;;6.23;43.08
22257;BME280;11297;42.686;23.374;2023-02-03T15:16:58;95381.59;;;6.20;43.26
22257;BME280;11297;42.686;23.374;2023-02-03T15:19:37;95386.25;;;6.23;42.47
22257;BME280;11297;42.686;23.374;2023-02-03T15:24:42;95369.56;;;5.91;42.83
22257;BME280;11297;42.686;23.374;2023-02-03T15:27:19;95367.47;;;6.03;42.29
22257;BME280;11297;42.686;23.374;2023-02-03T15:29:46;95366.69;;;6.02;42.52
22257;BME280;11297;42.686;23.374;2023-02-03T15:32:22;95369.22;;;6.12;42.37
22257;BME280;11297;42.686;23.374;2023-02-03T15:34:51;95368.50;;;6.02;42.77
22257;BME280;11297;42.686;23.374;2023-02-03T15:37:31;95362.03;;;6.04;42.63
22257;BME280;11297;42.686;23.374;2023-02-03T15:40:04;95364.88;;;6.03;43.18
22257;BME280;11297;42.686;23.374;2023-02-03T15:42:52;95343.75;;;6.01;43.63
22257;BME280;11297;42.686;23.374;2023-02-03T15:48:00;95356.59;;;6.11;43.47
22257;BME280;11297;42.686;23.374;2023-02-03T15:50:29;95357.16;;;6.03;43.83
22257;BME280;11297;42.686;23.374;2023-02-03T15:53:17;95349.44;;;5.93;45.45